Time;durP1;ratioP1;P1;durP2;ratioP2;P2;SDS_P1;SDS_P2;PMS_P1;PMS_P2;Temp;Humidity;BMP_temperature;BMP_pressure;BME280_temperature;BME280_humidity;BME280_pressure;Samples;Min_cycle;Max_cycle;Signal;HPM_P1;HPM_P2
2022/01/12 00:00:21;;;;;;;62.72;29.55;;;3.80;99.90;;;;;;5018028;28;20041;-62
2022/01/12 00:02:46;;;;;;;78.28;30.90;;;3.90;99.90;;;;;;5018258;28;20135;-62
2022/01/12 00:05:12;;;;;;;72.22;30.73;;;4.00;99.90;;;;;;5034250;28;20077;-62
2022/01/12 00:07:37;;;;;;;78.32;30.23;;;4.10;99.90;;;;;;5035470;28;20040;-62
2022/01/12 00:10:04;;;;;;;84.18;31.73;;;3.90;99.90;;;;;;5035615;28;20112;-62
2022/01/12 00:12:30;;;;;;;67.60;30.23;;;;;;;;;;5034094;28;20144;-62
2022/01/12 00:14:56;;;;;;;73.10;30.67;;;4.00;99.90;;;;;;5034332;28;20391;-62
2022/01/12 00:17:21;;;;;;;74.80;29.83;;;3.80;99.90;;;;;;5034076;28;20045;-62
2022/01/12 00:19:48;;;;;;;78.55;30.27;;;;;;;;;;5035314;28;20037;-61
2022/01/12 00:22:15;;;;;;;76.45;29.85;;;3.90;99.90;;;;;;5034140;28;20085;-62
2022/01/12 00:35:34;;;;;;;80.55;30.05;;;3.90;99.90;;;;;;5035256;28;20049;-62
2022/01/12 00:38:00;;;;;;;87.80;31.13;;;4.00;99.90;;;;;;4998654;28;1049092;-62
2022/01/12 00:40:26;;;;;;;73.72;30.35;;;4.00;99.90;;;;;;5036359;28;20052;-62
2022/01/12 00:42:53;;;;;;;97.28;33.25;;;4.10;99.90;;;;;;5035228;28;20042;-65
2022/01/12 00:45:20;;;;;;;80.85;29.52;;;4.00;99.90;;;;;;5035010;28;20120;-62
2022/01/12 00:47:45;;;;;;;77.43;30.25;;;3.90;99.90;;;;;;5034716;28;20507;-62
2022/01/12 00:50:11;;;;;;;96.72;35.30;;;4.00;99.90;;;;;;5034756;28;20077;-62
2022/01/12 00:52:37;;;;;;;80.57;31.00;;;3.90;99.90;;;;;;5035992;28;20042;-62
2022/01/12 00:55:03;;;;;;;89.45;32.95;;;3.90;99.90;;;;;;5034695;28;20045;-62
2022/01/12 00:57:30;;;;;;;85.88;31.27;;;4.00;99.90;;;;;;5034620;28;20041;-62
2022/01/12 00:59:56;;;;;;;83.28;31.00;;;;;;;;;;5035721;28;20484;-61
2022/01/12 01:02:22;;;;;;;88.90;32.65;;;;;;;;;;5035740;28;20088;-62
2022/01/12 01:04:47;;;;;;;83.82;32.92;;;4.00;99.90;;;;;;5035330;28;20574;-62
2022/01/12 01:07:13;;;;;;;81.55;32.60;;;4.00;99.90;;;;;;5035406;28;20072;-62
2022/01/12 01:09:44;;;;;;;97.75;32.38;;;4.00;99.90;;;;;;5035873;28;20049;-62
2022/01/12 01:12:10;;;;;;;91.07;33.28;;;4.00;99.90;;;;;;5034656;28;20103;-62
2022/01/12 01:15:27;;;;;;;101.22;33.92;;;4.10;99.90;;;;;;5034424;28;20077;-62
2022/01/12 01:25:34;;;;;;;103.28;34.17;;;3.90;99.90;;;;;;5034074;28;20045;-62
2022/01/12 01:28:01;;;;;;;88.05;33.80;;;4.00;99.90;;;;;;5033977;28;20041;-62
2022/01/12 01:30:26;;;;;;;91.07;32.55;;;3.90;99.90;;;;;;5034033;28;20053;-61
2022/01/12 01:32:53;;;;;;;94.45;32.58;;;3.90;99.90;;;;;;5034005;28;20116;-62
2022/01/12 01:35:19;;;;;;;111.10;35.65;;;4.10;99.90;;;;;;5035154;28;20546;-61
2022/01/12 01:37:45;;;;;;;98.30;32.65;;;4.10;99.90;;;;;;5033630;28;20526;-61
2022/01/12 01:40:12;;;;;;;96.10;34.00;;;4.00;99.90;;;;;;5035075;28;20041;-61
2022/01/12 01:53:45;;;;;;;97.90;34.03;;;4.20;99.90;;;;;;5033623;28;20092;-61
2022/01/12 01:56:11;;;;;;;113.28;34.88;;;4.20;99.90;;;;;;5035028;28;20037;-61
2022/01/12 01:58:36;;;;;;;102.03;35.25;;;4.10;99.90;;;;;;5034657;28;20029;-61
2022/01/12 02:01:03;;;;;;;109.63;35.58;;;;;;;;;;5033726;28;20561;-61
2022/01/12 02:03:29;;;;;;;103.60;34.78;;;4.20;99.90;;;;;;5033280;28;20044;-61
2022/01/12 02:05:56;;;;;;;100.10;35.65;;;4.00;99.90;;;;;;5016981;28;20041;-61
2022/01/12 02:08:22;;;;;;;121.70;37.53;;;4.20;99.90;;;;;;5016686;28;20050;-61
2022/01/12 02:10:56;;;;;;;95.78;34.30;;;4.20;99.90;;;;;;5033312;28;20048;-61
2022/01/12 02:13:22;;;;;;;108.28;35.22;;;4.20;99.90;;;;;;5034495;28;20099;-61
2022/01/12 02:15:49;;;;;;;126.40;37.33;;;4.30;99.90;;;;;;5034379;28;20045;-61
2022/01/12 02:40:11;;;;;;;113.05;34.22;;;4.20;99.90;;;;;;5034289;28;20053;-61
2022/01/12 02:42:41;;;;;;;103.50;33.40;;;4.50;99.90;;;;;;5016437;28;20076;-61
2022/01/12 02:50:46;;;;;;;228.20;40.47;;;4.20;99.90;;;;;;5032615;28;20045;-62
2022/01/12 02:55:59;;;;;;;105.60;34.08;;;4.20;99.90;;;;;;5032487;28;20124;-62
2022/01/12 02:58:24;;;;;;;97.82;32.28;;;4.30;99.90;;;;;;5032262;28;20049;-62
2022/01/12 03:03:41;;;;;;;96.22;33.30;;;4.20;99.90;;;;;;5032351;28;20053;-62
2022/01/12 03:06:09;;;;;;;97.05;32.53;;;;;;;;;;5032143;28;20399;-62
2022/01/12 03:08:38;;;;;;;91.63;31.88;;;;;;;;;;5032151;28;20045;-62
2022/01/12 03:11:08;;;;;;;106.25;34.53;;;;;;;;;;5033516;28;20183;-62
2022/01/12 03:13:35;;;;;;;97.40;31.15;;;4.20;99.90;;;;;;5032499;28;20056;-62
2022/01/12 03:16:10;;;;;;;103.32;34.67;;;4.40;99.90;;;;;;5015719;28;20495;-62
2022/01/12 03:18:35;;;;;;;87.10;31.13;;;4.30;99.90;;;;;;5033192;28;20076;-62
2022/01/12 03:21:01;;;;;;;100.70;34.00;;;3.90;99.90;;;;;;5032251;28;20081;-62
2022/01/12 03:23:26;;;;;;;110.90;33.72;;;4.20;99.90;;;;;;5033431;28;20040;-62
2022/01/12 03:25:52;;;;;;;107.25;34.22;;;4.20;99.90;;;;;;5033305;28;20033;-62
2022/01/12 03:28:18;;;;;;;102.85;32.78;;;4.30;99.90;;;;;;5033265;28;20563;-62
2022/01/12 03:30:55;;;;;;;125.45;33.78;;;;;;;;;;5031760;28;20037;-62
2022/01/12 03:38:44;;;;;;;85.18;31.65;;;4.20;99.90;;;;;;5031485;28;20409;-62
2022/01/12 03:41:10;;;;;;;100.10;31.13;;;4.30;99.90;;;;;;5031894;28;20124;-62
2022/01/12 03:43:36;;;;;;;130.95;33.85;;;;;;;;;;5032995;28;20045;-62
2022/01/12 03:46:02;;;;;;;91.35;30.52;;;;;;;;;;5032041;28;20050;-62
2022/01/12 03:48:28;;;;;;;112.30;34.47;;;;;;;;;;5033037;28;20038;-62
2022/01/12 03:50:56;;;;;;;86.88;30.42;;;4.40;99.90;;;;;;5032981;28;20041;-62
2022/01/12 03:53:22;;;;;;;86.28;31.85;;;4.30;99.90;;;;;;5031811;28;20072;-62
2022/01/12 03:55:48;;;;;;;86.95;29.73;;;;;;;;;;5032870;28;20483;-63
2022/01/12 03:58:14;;;;;;;79.35;29.98;;;4.40;99.90;;;;;;5031523;28;20076;-62
2022/01/12 04:00:39;;;;;;;89.80;31.88;;;4.40;99.90;;;;;;5031658;28;20077;-62
2022/01/12 04:03:07;;;;;;;77.47;27.35;;;4.30;99.90;;;;;;5015272;28;20467;-62
2022/01/12 04:08:20;;;;;;;67.80;26.00;;;;;;;;;;5031609;28;20063;-62
2022/01/12 04:10:47;;;;;;;91.60;28.20;;;4.40;99.90;;;;;;5031837;28;20045;-62
2022/01/12 04:13:14;;;;;;;76.32;27.10;;;4.70;99.90;;;;;;5032907;28;20438;-62
2022/01/12 04:15:44;;;;;;;74.53;25.40;;;4.40;99.90;;;;;;5031596;28;20038;-62
2022/01/12 04:18:10;;;;;;;87.65;28.77;;;4.50;99.90;;;;;;5031574;28;20049;-62
2022/01/12 04:20:44;;;;;;;65.82;25.60;;;4.50;99.90;;;;;;5031525;28;20047;-62
2022/01/12 04:23:18;;;;;;;65.43;26.33;;;4.30;99.90;;;;;;5031607;28;20160;-62
2022/01/12 04:25:52;;;;;;;69.73;24.63;;;4.40;99.90;;;;;;5031492;28;20037;-61
2022/01/12 04:28:20;;;;;;;70.80;25.35;;;4.60;99.90;;;;;;5032149;28;20697;-62
2022/01/12 04:30:47;;;;;;;60.10;24.15;;;4.30;99.90;;;;;;5031575;28;20053;-62
2022/01/12 04:33:13;;;;;;;55.22;23.83;;;4.30;99.90;;;;;;5015323;28;20045;-62
2022/01/12 04:35:50;;;;;;;48.00;20.67;;;4.30;99.90;;;;;;5031588;28;20175;-62
2022/01/12 04:38:18;;;;;;;48.00;19.92;;;4.20;99.90;;;;;;5032377;28;20049;-62
2022/01/12 04:40:46;;;;;;;40.60;18.88;;;4.30;99.90;;;;;;5031332;28;20124;-62
2022/01/12 04:43:11;;;;;;;90.13;20.95;;;4.00;99.90;;;;;;5034050;28;20507;-62
2022/01/12 04:45:57;;;;;;;163.70;25.15;;;3.90;99.90;;;;;;5018598;28;20041;-62
2022/01/12 04:50:53;;;;;;;92.13;19.45;;;3.80;99.90;;;;;;5035866;28;20362;-62
2022/01/12 04:53:19;;;;;;;230.70;27.70;;;3.70;99.90;;;;;;5036012;28;20037;-64
2022/01/12 04:55:49;;;;;;;199.35;23.92;;;3.60;99.90;;;;;;5035996;28;20083;-62
2022/01/12 04:58:15;;;;;;;39.03;17.73;;;3.70;99.90;;;;;;5018729;28;20042;-62
2022/01/12 05:00:42;;;;;;;58.05;17.02;;;3.60;99.90;;;;;;5034552;28;20120;-62
2022/01/12 05:13:52;;;;;;;36.28;13.48;;;3.30;99.90;;;;;;5038186;28;20045;-62
2022/01/12 05:16:19;;;;;;;70.10;15.48;;;3.10;99.90;;;;;;5053772;28;20398;-62
2022/01/12 05:18:47;;;;;;;35.90;13.95;;;3.30;99.90;;;;;;5037969;28;20073;-62
2022/01/12 05:21:13;;;;;;;58.78;13.63;;;;;;;;;;5032941;28;20041;-63
2022/01/12 05:23:40;;;;;;;34.33;13.80;;;;;;;;;;5033365;28;20041;-63
2022/01/12 05:26:07;;;;;;;23.10;11.57;;;3.00;99.90;;;;;;5035014;28;20506;-63
2022/01/12 05:28:33;;;;;;;21.40;11.88;;;;;;;;;;5031726;28;20060;-62
2022/01/12 05:31:00;;;;;;;32.28;11.93;;;;;;;;;;5038884;28;20045;-62
2022/01/12 05:33:26;;;;;;;63.15;13.93;;;3.00;99.90;;;;;;5054170;28;20088;-62
2022/01/12 05:35:57;;;;;;;88.75;14.05;;;2.80;99.90;;;;;;5051500;28;20045;-62
2022/01/12 05:38:22;;;;;;;117.18;13.68;;;2.80;99.90;;;;;;5051662;28;20045;-62
2022/01/12 05:40:52;;;;;;;60.17;10.70;;;2.70;99.90;;;;;;5053782;28;20063;-62
2022/01/12 05:43:24;;;;;;;45.70;9.20;;;2.60;99.90;;;;;;5052479;28;20120;-62
2022/01/12 05:45:51;;;;;;;43.63;9.50;;;2.30;99.90;;;;;;5052588;28;20045;-62
2022/01/12 05:50:42;;;;;;;20.30;7.63;;;2.50;99.90;;;;;;5049828;28;20050;-62
2022/01/12 05:53:09;;;;;;;25.25;8.45;;;2.20;99.90;;;;;;5031455;28;20029;-62
2022/01/12 05:55:34;;;;;;;38.83;8.60;;;2.30;99.90;;;;;;5033592;28;20107;-62
2022/01/12 05:58:00;;;;;;;18.40;7.30;;;2.30;99.90;;;;;;5033620;28;20061;-62
2022/01/12 06:00:27;;;;;;;97.18;10.73;;;;;;;;;;5033034;28;20122;-62
2022/01/12 06:02:53;;;;;;;68.15;10.48;;;;;;;;;;5033084;28;20041;-62
2022/01/12 06:05:21;;;;;;;16.70;7.38;;;2.30;99.90;;;;;;5047488;28;20107;-62
2022/01/12 06:07:51;;;;;;;37.60;8.95;;;2.30;99.90;;;;;;5036684;28;20037;-62
2022/01/12 06:10:17;;;;;;;67.18;9.35;;;;;;;;;;5031839;28;20052;-62
2022/01/12 06:12:44;;;;;;;39.42;8.20;;;;;;;;;;5046760;28;20041;-63
2022/01/12 06:15:11;;;;;;;40.05;9.88;;;2.40;99.90;;;;;;5053415;28;20044;-62
2022/01/12 06:17:37;;;;;;;47.53;8.88;;;;;;;;;;5049796;28;20399;-63
2022/01/12 06:20:04;;;;;;;24.10;8.93;;;;;;;;;;5048346;28;20049;-62
2022/01/12 06:22:30;;;;;;;38.88;8.75;;;2.30;99.90;;;;;;5032723;28;20050;-62
2022/01/12 06:24:57;;;;;;;24.50;8.27;;;;;;;;;;5033036;28;20104;-62
2022/01/12 06:27:27;;;;;;;37.63;9.27;;;2.20;99.90;;;;;;5032893;28;20120;-62
2022/01/12 06:31:10;;;;;;;64.90;9.93;;;2.10;99.90;;;;;;5042110;28;20461;-62
2022/01/12 06:32:51;;;;;;;39.65;8.48;;;2.20;99.90;;;;;;5053839;28;20498;-62
2022/01/12 06:35:17;;;;;;;40.38;9.45;;;2.00;99.90;;;;;;5052129;28;20040;-62
2022/01/12 06:37:42;;;;;;;11.60;7.43;;;1.90;99.90;;;;;;5053676;28;20414;-62
2022/01/12 06:40:09;;;;;;;13.90;8.23;;;1.90;99.90;;;;;;5052571;28;20053;-62
2022/01/12 06:42:34;;;;;;;16.77;8.68;;;2.00;99.90;;;;;;5053926;28;20076;-62
2022/01/12 06:45:00;;;;;;;40.53;9.70;;;2.00;99.90;;;;;;5053818;28;20083;-62
2022/01/12 06:47:25;;;;;;;68.82;12.02;;;2.10;99.90;;;;;;5053718;28;20048;-62
2022/01/12 06:49:51;;;;;;;36.05;11.23;;;2.10;99.90;;;;;;5052542;28;20048;-62
2022/01/12 06:52:17;;;;;;;89.47;12.27;;;2.00;99.90;;;;;;5036900;28;20049;-62
2022/01/12 06:54:42;;;;;;;69.38;10.27;;;2.00;99.90;;;;;;5041757;28;20033;-61
2022/01/12 06:57:08;;;;;;;65.65;10.52;;;2.00;99.90;;;;;;5053501;28;20044;-61
2022/01/12 06:59:34;;;;;;;104.00;11.68;;;;;;;;;;5051629;28;20051;-62
2022/01/12 07:01:59;;;;;;;69.40;11.45;;;2.00;99.90;;;;;;5051018;28;20044;-62
2022/01/12 07:04:25;;;;;;;40.65;11.38;;;;;;;;;;5051789;28;20044;-62
2022/01/12 07:06:51;;;;;;;73.82;10.60;;;2.10;99.90;;;;;;5047838;28;20121;-62
2022/01/12 07:09:16;;;;;;;50.05;10.35;;;1.80;99.90;;;;;;5052708;28;20064;-62
2022/01/12 07:11:42;;;;;;;27.38;10.75;;;2.00;99.90;;;;;;5038875;28;20045;-62
2022/01/12 07:14:08;;;;;;;27.20;10.07;;;;;;;;;;5044729;28;20115;-62
2022/01/12 07:16:34;;;;;;;30.90;10.40;;;2.20;99.90;;;;;;5038709;28;20037;-62
2022/01/12 07:18:59;;;;;;;66.22;11.73;;;2.00;99.90;;;;;;5032067;28;20057;-62
2022/01/12 07:21:26;;;;;;;27.95;10.07;;;2.20;99.90;;;;;;5032208;28;20073;-62
2022/01/12 07:23:56;;;;;;;23.17;9.80;;;2.20;99.90;;;;;;5032648;28;20037;-62
2022/01/12 07:26:23;;;;;;;33.47;11.25;;;2.30;99.90;;;;;;5030562;28;20503;-62
2022/01/12 07:28:49;;;;;;;37.40;10.35;;;2.20;99.90;;;;;;5032607;28;20062;-62
2022/01/12 07:31:14;;;;;;;27.40;10.00;;;2.40;99.90;;;;;;5031681;28;20128;-62
2022/01/12 07:33:40;;;;;;;43.42;10.82;;;2.50;99.90;;;;;;5032299;28;20591;-62
2022/01/12 07:36:06;;;;;;;39.22;9.50;;;2.40;99.90;;;;;;5056805;28;20047;-62
2022/01/12 07:38:31;;;;;;;38.60;10.18;;;2.40;99.90;;;;;;5044882;28;20057;-62
2022/01/12 07:40:57;;;;;;;42.63;10.38;;;2.40;99.90;;;;;;5032212;28;20049;-61
2022/01/12 07:43:23;;;;;;;49.05;11.38;;;;;;;;;;5040721;28;20042;-62
2022/01/12 07:45:49;;;;;;;96.15;12.48;;;;;;;;;;5034916;28;20342;-62
2022/01/12 07:48:15;;;;;;;33.33;11.45;;;;;;;;;;5029532;28;20388;-63
2022/01/12 07:50:41;;;;;;;84.65;12.35;;;;;;;;;;5027001;28;20480;-64
2022/01/12 07:53:08;;;;;;;76.95;11.25;;;;;;;;;;5037418;28;20045;-64
2022/01/12 07:55:34;;;;;;;58.72;10.07;;;;;;;;;;5039534;28;20084;-64
2022/01/12 07:58:00;;;;;;;72.28;11.00;;;;;;;;;;5043737;28;20048;-63
2022/01/12 08:00:26;;;;;;;80.13;11.18;;;;;;;;;;5041506;28;20457;-63
2022/01/12 08:02:52;;;;;;;84.30;11.55;;;;;;;;;;5041224;28;20045;-64
2022/01/12 08:05:19;;;;;;;73.22;11.65;;;;;;;;;;5044836;28;20029;-64
2022/01/12 08:07:46;;;;;;;53.58;10.85;;;;;;;;;;5041098;28;20045;-64
2022/01/12 08:10:12;;;;;;;44.08;10.25;;;;;;;;;;5046269;28;20045;-64
2022/01/12 08:12:38;;;;;;;45.42;11.05;;;2.70;99.90;;;;;;5035473;28;20534;-64
2022/01/12 08:15:07;;;;;;;49.90;10.07;;;;;;;;;;5040585;28;20045;-63
2022/01/12 08:17:34;;;;;;;45.50;10.77;;;2.70;99.90;;;;;;5041704;28;20049;-64
2022/01/12 08:20:01;;;;;;;43.20;11.30;;;2.70;99.90;;;;;;5043406;28;20398;-63
2022/01/12 08:22:27;;;;;;;51.97;11.23;;;;;;;;;;5042951;28;20052;-64
2022/01/12 08:24:53;;;;;;;32.65;9.63;;;2.90;99.90;;;;;;5045488;28;20033;-64
2022/01/12 08:27:19;;;;;;;32.78;10.63;;;;;;;;;;5031177;28;20403;-63
2022/01/12 08:29:45;;;;;;;42.53;10.93;;;;;;;;;;5026521;28;20491;-64
2022/01/12 08:32:11;;;;;;;33.00;11.60;;;;;;;;;;5036204;28;20495;-64
2022/01/12 08:34:37;;;;;;;49.50;11.50;;;;;;;;;;5032570;28;20049;-63
2022/01/12 08:37:03;;;;;;;36.42;11.18;;;;;;;;;;5033399;28;20132;-63
2022/01/12 08:39:29;;;;;;;34.53;11.07;;;3.00;99.90;;;;;;5036078;28;20052;-63
2022/01/12 08:41:55;;;;;;;40.42;11.63;;;;;;;;;;5037290;28;20046;-64
2022/01/12 08:44:21;;;;;;;35.80;11.60;;;3.10;99.90;;;;;;5032140;28;20056;-64
2022/01/12 08:46:47;;;;;;;29.75;11.55;;;;;;;;;;5032263;28;20050;-64
2022/01/12 08:49:13;;;;;;;26.80;9.88;;;;;;;;;;5014835;28;20056;-63
2022/01/12 08:51:39;;;;;;;36.55;11.95;;;3.20;99.90;;;;;;5035334;28;20057;-65
2022/01/12 08:54:05;;;;;;;21.80;11.52;;;;;;;;;;5038211;28;20029;-65
2022/01/12 08:56:31;;;;;;;28.20;11.93;;;3.40;99.90;;;;;;5043897;28;20053;-64
2022/01/12 08:58:57;;;;;;;27.77;11.13;;;3.50;99.90;;;;;;5046599;28;20402;-64
2022/01/12 09:01:23;;;;;;;30.58;12.07;;;;;;;;;;5040189;28;20036;-64
2022/01/12 09:03:48;;;;;;;26.33;12.43;;;3.40;99.90;;;;;;5048540;28;20064;-64
2022/01/12 09:06:14;;;;;;;27.77;11.95;;;3.60;99.90;;;;;;5041287;28;20084;-64
2022/01/12 09:08:42;;;;;;;29.70;12.50;;;3.60;99.90;;;;;;5033154;28;20045;-64
2022/01/12 09:11:08;;;;;;;40.15;12.38;;;;;;;;;;5032719;28;20041;-64
2022/01/12 09:13:34;;;;;;;25.52;11.90;;;3.80;99.90;;;;;;5037713;28;20056;-64
2022/01/12 09:16:06;;;;;;;23.98;11.40;;;;;;;;;;5031448;28;20079;-63
2022/01/12 09:18:32;;;;;;;28.30;11.80;;;;;;;;;;5063600;28;20053;-63
2022/01/12 09:20:58;;;;;;;23.90;11.20;;;;;;;;;;5031428;28;20042;-64
2022/01/12 09:23:24;;;;;;;24.17;11.73;;;;;;;;;;5061381;28;20541;-64
2022/01/12 09:25:50;;;;;;;27.95;11.25;;;;;;;;;;5041031;28;20064;-63
2022/01/12 09:28:17;;;;;;;25.48;10.70;;;4.10;99.90;;;;;;5045954;28;20486;-64
2022/01/12 09:30:43;;;;;;;29.55;10.82;;;3.90;99.90;;;;;;5044214;28;20107;-64
2022/01/12 09:33:09;;;;;;;43.13;12.02;;;;;;;;;;5046082;28;20494;-63
2022/01/12 09:35:35;;;;;;;34.20;11.25;;;;;;;;;;5031378;28;20120;-64
2022/01/12 09:38:00;;;;;;;33.45;11.68;;;4.20;99.90;;;;;;5030862;28;20072;-64
2022/01/12 09:40:26;;;;;;;29.98;11.05;;;4.20;99.90;;;;;;5032019;28;20065;-64
2022/01/12 09:42:53;;;;;;;38.67;11.05;;;4.30;99.90;;;;;;5032381;28;20044;-64
2022/01/12 09:45:19;;;;;;;30.58;10.30;;;4.30;99.90;;;;;;5042136;28;20041;-63
2022/01/12 09:47:47;;;;;;;43.17;9.63;;;;;;;;;;5062106;28;20368;-64
2022/01/12 09:50:14;;;;;;;32.08;11.48;;;;;;;;;;5029945;28;20061;-64
2022/01/12 09:52:39;;;;;;;30.63;10.13;;;4.40;99.90;;;;;;5031251;28;20468;-63
2022/01/12 09:55:05;;;;;;;49.92;11.25;;;4.60;99.90;;;;;;5035697;28;20073;-64
2022/01/12 09:57:31;;;;;;;39.65;9.48;;;4.70;99.90;;;;;;5033557;28;20080;-64
2022/01/12 09:59:57;;;;;;;36.90;9.93;;;;;;;;;;5035401;28;20487;-64
2022/01/12 10:02:22;;;;;;;32.15;8.98;;;4.90;99.90;;;;;;5036416;28;20095;-65
2022/01/12 10:04:58;;;;;;;37.83;9.55;;;4.80;99.90;;;;;;5046757;28;20474;-64
2022/01/12 10:07:25;;;;;;;43.25;8.93;;;5.00;99.90;;;;;;5041835;28;20086;-62
2022/01/12 10:09:53;;;;;;;34.83;8.95;;;;;;;;;;5046843;28;20051;-62
2022/01/12 10:12:21;;;;;;;33.22;8.25;;;4.90;99.90;;;;;;5039958;28;20048;-63
2022/01/12 10:14:49;;;;;;;20.23;6.63;;;5.00;99.90;;;;;;5062804;28;20045;-63
2022/01/12 10:17:19;;;;;;;18.58;5.65;;;5.00;99.90;;;;;;5041922;28;20041;-63
2022/01/12 10:19:45;;;;;;;22.92;5.60;;;5.00;99.90;;;;;;5019495;28;20061;-63
2022/01/12 10:22:16;;;;;;;23.02;6.43;;;5.20;99.90;;;;;;5033649;28;20395;-62
2022/01/12 10:24:44;;;;;;;34.13;6.72;;;5.00;99.90;;;;;;5040657;28;20511;-63
2022/01/12 10:27:20;;;;;;;42.25;7.32;;;;;;;;;;5038168;28;20060;-62
2022/01/12 10:29:58;;;;;;;38.70;6.68;;;5.20;99.90;;;;;;5046231;28;20131;-62
2022/01/12 10:32:24;;;;;;;42.67;7.25;;;5.20;99.90;;;;;;5031508;28;20083;-62
2022/01/12 10:34:50;;;;;;;25.98;6.28;;;5.30;99.90;;;;;;5036208;28;20077;-62
2022/01/12 10:37:19;;;;;;;24.50;6.25;;;5.40;99.90;;;;;;5035854;28;20491;-63
2022/01/12 10:39:48;;;;;;;42.25;9.35;;;;;;;;;;5034614;28;20056;-63
2022/01/12 10:42:18;;;;;;;21.52;6.97;;;5.60;99.90;;;;;;5062234;28;20041;-62
2022/01/12 10:44:45;;;;;;;25.40;6.78;;;;;;;;;;5030102;28;20037;-62
2022/01/12 10:47:20;;;;;;;29.35;7.43;;;5.50;99.90;;;;;;5030606;28;20029;-62
2022/01/12 10:49:58;;;;;;;33.88;7.30;;;;;;;;;;5034286;28;20037;-62
2022/01/12 10:52:39;;;;;;;39.53;7.45;;;5.30;99.90;;;;;;5030434;28;20128;-62
2022/01/12 10:55:09;;;;;;;55.67;8.48;;;;;;;;;;5030916;28;20035;-63
2022/01/12 10:57:45;;;;;;;104.90;9.35;;;;;;;;;;5029616;28;20121;-62
2022/01/12 11:00:18;;;;;;;74.93;8.60;;;;;;;;;;5034350;28;20044;-62
2022/01/12 11:02:51;;;;;;;54.20;8.15;;;5.20;99.90;;;;;;5030952;28;20090;-62
2022/01/12 11:05:18;;;;;;;68.20;8.05;;;;;;;;;;5029227;28;20128;-62
2022/01/12 11:07:44;;;;;;;53.10;8.10;;;;;;;;;;5029525;28;20045;-62
2022/01/12 11:10:11;;;;;;;79.82;8.80;;;;;;;;;;5029627;28;20107;-63
2022/01/12 11:12:38;;;;;;;48.33;7.25;;;5.20;99.90;;;;;;5050010;28;20049;-63
2022/01/12 11:15:08;;;;;;;48.05;8.57;;;;;;;;;;5042397;28;20040;-62
2022/01/12 11:17:34;;;;;;;50.47;8.32;;;;;;;;;;5043962;28;20034;-63
2022/01/12 11:20:16;;;;;;;75.65;10.13;;;5.20;99.90;;;;;;5044276;28;20041;-63
2022/01/12 11:23:00;;;;;;;118.82;10.63;;;5.20;99.90;;;;;;5036283;28;20060;-63
2022/01/12 11:25:25;;;;;;;40.85;7.35;;;5.20;99.90;;;;;;5016641;28;20063;-62
2022/01/12 11:28:04;;;;;;;46.65;6.55;;;;;;;;;;5030355;28;20049;-63
2022/01/12 11:30:33;;;;;;;30.38;7.32;;;5.20;99.90;;;;;;5030298;28;20053;-62
2022/01/12 11:33:01;;;;;;;60.72;8.50;;;5.40;99.90;;;;;;5030662;28;20081;-62
2022/01/12 11:35:32;;;;;;;59.83;8.43;;;;;;;;;;5030097;28;20037;-62
2022/01/12 11:37:59;;;;;;;52.55;7.57;;;5.20;99.90;;;;;;5029940;28;20065;-61
2022/01/12 11:40:42;;;;;;;56.97;8.30;;;;;;;;;;5029700;28;20128;-63
2022/01/12 11:43:17;;;;;;;57.13;7.50;;;;;;;;;;5041824;28;20094;-64
2022/01/12 11:45:43;;;;;;;40.13;7.20;;;;;;;;;;5041927;28;20127;-64
2022/01/12 11:48:09;;;;;;;29.73;7.10;;;;;;;;;;5041061;28;20128;-63
2022/01/12 11:50:36;;;;;;;46.28;7.20;;;;;;;;;;5058733;28;20048;-62
2022/01/12 11:53:01;;;;;;;23.80;6.55;;;5.50;99.90;;;;;;5048182;28;20036;-62
2022/01/12 11:55:34;;;;;;;34.50;7.75;;;5.50;99.90;;;;;;5042449;28;20063;-63
2022/01/12 11:58:03;;;;;;;45.40;8.90;;;;;;;;;;5047451;28;20091;-63
2022/01/12 12:00:31;;;;;;;31.63;8.50;;;5.50;99.90;;;;;;5046203;28;20053;-63
2022/01/12 12:02:58;;;;;;;32.35;7.45;;;;;;;;;;5035165;28;20463;-64
2022/01/12 12:05:28;;;;;;;37.15;7.32;;;5.60;99.90;;;;;;5034195;28;20037;-63
2022/01/12 12:07:55;;;;;;;29.35;7.47;;;;;;;;;;5045757;28;20029;-63
2022/01/12 12:10:25;;;;;;;22.25;7.82;;;;;;;;;;5033808;28;20124;-62
2022/01/12 12:12:53;;;;;;;21.75;7.38;;;5.40;99.90;;;;;;5039202;28;20041;-63
2022/01/12 12:15:19;;;;;;;27.52;8.45;;;5.40;99.90;;;;;;5032386;28;20041;-63
2022/01/12 12:17:45;;;;;;;30.42;8.27;;;5.50;99.90;;;;;;5037033;28;20033;-63
2022/01/12 12:20:13;;;;;;;25.08;8.00;;;;;;;;;;5045400;28;20376;-63
2022/01/12 12:22:40;;;;;;;21.48;8.20;;;5.50;99.90;;;;;;5046694;28;20033;-64
2022/01/12 12:25:24;;;;;;;17.67;7.85;;;5.50;99.90;;;;;;5045075;28;20041;-63
2022/01/12 12:27:51;;;;;;;19.48;7.43;;;;;;;;;;5034012;28;20064;-64
2022/01/12 12:30:19;;;;;;;22.02;7.20;;;5.40;99.90;;;;;;5033442;28;20466;-63
2022/01/12 12:32:49;;;;;;;28.63;8.40;;;;;;;;;;5032802;28;20445;-63
2022/01/12 12:35:18;;;;;;;22.67;8.38;;;5.40;99.90;;;;;;5036020;28;20045;-62
2022/01/12 12:37:46;;;;;;;21.90;8.95;;;;;;;;;;5032848;28;20114;-63
2022/01/12 12:40:39;;;;;;;26.42;7.93;;;5.60;99.90;;;;;;5028471;28;20201;-63
2022/01/12 12:43:18;;;;;;;26.10;9.25;;;;;;;;;;5033427;28;20160;-63
2022/01/12 12:45:45;;;;;;;25.45;9.68;;;5.60;99.90;;;;;;5033880;28;20045;-63
2022/01/12 12:48:17;;;;;;;31.67;8.63;;;;;;;;;;5032293;28;20140;-63
2022/01/12 12:50:43;;;;;;;29.25;9.77;;;5.70;99.90;;;;;;5033366;28;20037;-63
2022/01/12 12:53:09;;;;;;;33.80;9.70;;;;;;;;;;5033079;28;20040;-63
2022/01/12 12:55:36;;;;;;;29.25;9.55;;;;;;;;;;5031397;28;20069;-63
2022/01/12 12:58:03;;;;;;;30.15;9.93;;;;;;;;;;5033370;28;20049;-63
2022/01/12 13:00:29;;;;;;;29.00;9.73;;;5.80;99.90;;;;;;5039469;28;20072;-63
2022/01/12 13:02:57;;;;;;;31.55;9.48;;;;;;;;;;5033054;28;20041;-63
2022/01/12 13:05:24;;;;;;;36.75;10.00;;;;;;;;;;5032703;28;20522;-63
2022/01/12 13:07:51;;;;;;;32.13;10.75;;;5.90;99.90;;;;;;5040999;28;20052;-63
2022/01/12 13:10:19;;;;;;;32.22;10.52;;;5.80;99.90;;;;;;5042301;28;20136;-63
2022/01/12 13:12:50;;;;;;;31.77;10.40;;;;;;;;;;5044605;28;20119;-63
2022/01/12 13:15:27;;;;;;;31.70;11.05;;;;;;;;;;5048214;28;20120;-63
2022/01/12 13:18:07;;;;;;;26.50;9.73;;;6.10;99.90;;;;;;5046490;28;20504;-63
2022/01/12 13:23:28;;;;;;;32.35;10.55;;;6.00;99.90;;;;;;5045149;28;20045;-63
2022/01/12 13:26:01;;;;;;;34.58;10.95;;;6.00;99.90;;;;;;5045927;28;20044;-63
2022/01/12 13:28:28;;;;;;;36.05;10.20;;;;;;;;;;5046078;28;20041;-63
2022/01/12 13:30:59;;;;;;;29.70;11.02;;;;;;;;;;5049317;28;20040;-63
2022/01/12 13:33:31;;;;;;;33.72;9.75;;;6.10;99.90;;;;;;5041386;28;20128;-63
2022/01/12 13:35:58;;;;;;;32.30;11.60;;;;;;;;;;5045128;28;20036;-63
2022/01/12 13:38:26;;;;;;;38.35;11.15;;;;;;;;;;5042503;28;20138;-63
2022/01/12 13:40:55;;;;;;;32.50;11.35;;;6.10;99.90;;;;;;5042788;28;20489;-63
2022/01/12 13:43:21;;;;;;;36.67;10.98;;;;;;;;;;5043352;28;20032;-63
2022/01/12 13:45:49;;;;;;;34.20;12.00;;;6.00;99.90;;;;;;5044704;28;20490;-64
2022/01/12 13:48:21;;;;;;;30.52;11.75;;;;;;;;;;5038536;28;20051;-64
2022/01/12 13:50:52;;;;;;;36.20;11.98;;;;;;;;;;5032578;28;20044;-63
2022/01/12 13:53:18;;;;;;;39.70;11.20;;;;;;;;;;5031861;28;20045;-63
2022/01/12 13:55:53;;;;;;;30.88;11.25;;;6.00;99.90;;;;;;5049622;28;20495;-63
2022/01/12 13:58:22;;;;;;;39.42;12.20;;;;;;;;;;5031706;28;20135;-63
2022/01/12 14:00:48;;;;;;;36.17;10.70;;;;;;;;;;5032376;28;20045;-63
2022/01/12 14:03:23;;;;;;;29.05;10.95;;;;;;;;;;5014054;28;20072;-63
2022/01/12 14:05:57;;;;;;;30.48;11.43;;;6.00;99.90;;;;;;5040681;28;20041;-64
2022/01/12 14:08:28;;;;;;;31.90;10.68;;;5.90;99.90;;;;;;5038827;28;20159;-64
2022/01/12 14:10:55;;;;;;;37.95;10.20;;;5.80;99.90;;;;;;5031905;28;20041;-65
2022/01/12 14:13:29;;;;;;;39.70;11.48;;;6.00;99.90;;;;;;5054929;28;20132;-64
2022/01/12 14:16:05;;;;;;;32.00;9.95;;;;;;;;;;5040890;28;20394;-64
2022/01/12 14:18:31;;;;;;;32.17;10.05;;;6.00;99.90;;;;;;5044773;28;20056;-65
2022/01/12 14:20:59;;;;;;;31.25;10.05;;;;;;;;;;5040047;28;20045;-65
2022/01/12 14:23:25;;;;;;;27.83;10.23;;;;;;;;;;5033340;28;20049;-64
2022/01/12 14:25:52;;;;;;;26.55;10.70;;;5.80;99.90;;;;;;5044418;28;20068;-64
2022/01/12 14:28:26;;;;;;;32.13;11.32;;;5.70;99.90;;;;;;5043192;28;20033;-63
2022/01/12 14:30:52;;;;;;;37.63;12.00;;;5.80;99.90;;;;;;5046306;28;20043;-63
2022/01/12 14:33:18;;;;;;;35.35;11.30;;;;;;;;;;5044450;28;20033;-64
2022/01/12 14:35:44;;;;;;;37.20;11.75;;;5.80;99.90;;;;;;5042864;28;20032;-63
2022/01/12 14:38:10;;;;;;;38.22;12.15;;;;;;;;;;5040499;28;20045;-65
2022/01/12 14:40:36;;;;;;;28.85;11.40;;;;;;;;;;5036232;28;20053;-64
2022/01/12 14:43:03;;;;;;;31.73;11.07;;;;;;;;;;5028944;28;20706;-63
2022/01/12 14:45:31;;;;;;;30.80;11.95;;;;;;;;;;5028933;28;20061;-62